Time;durP1;ratioP1;P1;durP2;ratioP2;P2;SDS_P1;SDS_P2;PMS_P1;PMS_P2;Temp;Humidity;BMP_temperature;BMP_pressure;BME280_temperature;BME280_humidity;BME280_pressure;Samples;Min_cycle;Max_cycle;Signal;HPM_P1;HPM_P2
2022/03/08 00:02:02;;;;;;;14.20;7.70;;;;;;;-0.18;100.00;99298.56;5017054;28;20068;-56
2022/03/08 00:04:27;;;;;;;14.47;7.43;;;;;;;-0.26;100.00;99294.91;5016065;28;20099;-57
2022/03/08 00:06:54;;;;;;;12.57;7.33;;;;;;;-0.25;100.00;99294.09;5010748;28;20034;-57
2022/03/08 00:09:20;;;;;;;10.17;7.43;;;;;;;-0.24;100.00;99293.28;5012246;28;20044;-56
2022/03/08 00:11:45;;;;;;;12.40;8.10;;;;;;;-0.29;100.00;99297.31;5012766;28;20041;-59
2022/03/08 00:14:11;;;;;;;13.83;8.93;;;;;;;-0.34;100.00;99290.44;5014403;28;20038;-57
2022/03/08 00:16:36;;;;;;;13.70;7.73;;;;;;;-0.38;100.00;99284.41;5010968;28;20049;-59
2022/03/08 00:19:02;;;;;;;10.53;7.10;;;;;;;-0.30;100.00;99294.75;5016510;28;20042;-59
2022/03/08 00:21:27;;;;;;;10.00;6.73;;;;;;;-0.28;100.00;99308.25;5019826;28;20039;-57
2022/03/08 00:23:53;;;;;;;12.20;7.50;;;;;;;-0.27;100.00;99299.91;5015596;28;20049;-58
2022/03/08 00:26:18;;;;;;;11.90;6.73;;;;;;;-0.32;100.00;99303.91;5012250;28;20032;-58
2022/03/08 00:28:43;;;;;;;14.43;6.73;;;;;;;-0.29;100.00;99309.03;5015292;28;20153;-57
2022/03/08 00:31:09;;;;;;;12.27;7.43;;;;;;;-0.38;100.00;99306.25;5015157;28;20088;-58
2022/03/08 00:33:35;;;;;;;14.07;7.57;;;;;;;-0.50;100.00;99309.16;5013241;28;20131;-60
2022/03/08 00:36:00;;;;;;;11.43;6.90;;;;;;;-0.51;100.00;99302.44;5013466;28;20064;-57
2022/03/08 00:38:26;;;;;;;12.83;7.53;;;;;;;-0.50;100.00;99306.63;5015402;28;20172;-58
2022/03/08 00:40:51;;;;;;;13.07;6.77;;;;;;;-0.58;100.00;99301.34;5014236;28;20041;-58
2022/03/08 00:43:17;;;;;;;12.30;7.40;;;;;;;-0.65;100.00;99296.03;5015257;28;20053;-58
2022/03/08 00:45:42;;;;;;;15.93;7.93;;;;;;;-0.80;100.00;99301.38;5011500;28;20041;-57
2022/03/08 00:48:08;;;;;;;12.93;7.77;;;;;;;-0.81;100.00;99296.28;5013493;28;20040;-56
2022/03/08 00:50:34;;;;;;;20.00;17.63;;;;;;;-0.85;100.00;99302.03;5013911;28;20073;-58
2022/03/08 00:52:59;;;;;;;281.83;97.97;;;;;;;-0.89;100.00;99303.53;5012164;28;20045;-57
2022/03/08 00:55:28;;;;;;;208.50;86.70;;;;;;;-0.91;100.00;99292.56;5010990;28;20041;-57
2022/03/08 00:57:54;;;;;;;172.13;80.87;;;;;;;-0.97;100.00;99295.72;5016877;28;20041;-56
2022/03/08 01:00:21;;;;;;;135.43;75.40;;;;;;;-0.83;100.00;99292.84;5015497;28;20088;-59
2022/03/08 01:02:47;;;;;;;130.43;75.40;;;;;;;-0.82;100.00;99284.50;5012829;28;20053;-58
2022/03/08 01:05:13;;;;;;;94.67;67.33;;;;;;;-0.76;100.00;99290.59;5012167;28;20045;-57
2022/03/08 01:07:38;;;;;;;90.30;65.10;;;;;;;-0.73;100.00;99284.84;5013251;28;20045;-58
2022/03/08 01:10:09;;;;;;;108.43;70.60;;;;;;;-0.70;99.97;99292.50;5014853;28;20033;-59
2022/03/08 01:12:35;;;;;;;92.20;64.87;;;;;;;-0.67;99.08;99292.59;5009945;28;20045;-57
2022/03/08 01:15:04;;;;;;;82.13;62.67;;;;;;;-0.63;98.27;99290.25;5010619;28;20034;-57
2022/03/08 01:17:30;;;;;;;69.77;55.83;;;;;;;-0.62;98.49;99296.13;5015082;28;20045;-58
2022/03/08 01:19:56;;;;;;;53.10;47.53;;;;;;;-0.64;98.24;99286.03;5012570;28;20033;-55
2022/03/08 01:22:22;;;;;;;46.43;42.00;;;;;;;-0.69;97.91;99284.16;5012621;28;20529;-58
2022/03/08 01:24:47;;;;;;;35.50;32.17;;;;;;;-0.71;98.39;99283.22;5017484;28;20048;-57
2022/03/08 01:27:12;;;;;;;28.77;26.23;;;;;;;-0.67;98.44;99280.88;5016855;28;20054;-55
2022/03/08 01:29:38;;;;;;;26.80;24.23;;;;;;;-0.68;98.08;99279.16;5015435;28;20433;-56
2022/03/08 01:32:04;;;;;;;23.87;21.57;;;;;;;-0.76;98.10;99278.03;5014239;28;20619;-57
2022/03/08 01:34:30;;;;;;;29.87;27.13;;;;;;;-0.77;98.11;99281.38;5011140;28;20030;-59
2022/03/08 01:36:55;;;;;;;162.80;81.57;;;;;;;-0.74;98.08;99283.97;5013042;28;20026;-58
2022/03/08 01:39:22;;;;;;;123.67;75.20;;;;;;;-0.77;98.25;99280.50;5011024;28;20055;-59
2022/03/08 01:41:48;;;;;;;47.87;42.87;;;;;;;-0.78;98.27;99273.75;5009673;28;20057;-58
2022/03/08 01:44:17;;;;;;;29.93;27.03;;;;;;;-0.79;98.28;99282.94;5015517;28;20061;-55
2022/03/08 01:46:43;;;;;;;73.47;55.90;;;;;;;-0.75;97.98;99277.22;5015723;28;20408;-59
2022/03/08 01:49:08;;;;;;;80.87;62.23;;;;;;;-0.80;97.80;99278.72;5012025;28;20042;-59
2022/03/08 01:51:34;;;;;;;50.57;45.27;;;;;;;-0.75;97.89;99266.28;5009923;28;20050;-58
2022/03/08 01:54:00;;;;;;;31.93;28.73;;;;;;;-0.84;97.90;99273.50;5020037;28;20037;-58
2022/03/08 01:56:25;;;;;;;33.63;30.17;;;;;;;-0.83;97.87;99267.69;5013118;28;20035;-58
2022/03/08 01:58:51;;;;;;;36.83;33.17;;;;;;;-0.97;98.54;99270.56;5011321;28;20467;-57
2022/03/08 02:01:16;;;;;;;47.03;42.17;;;;;;;-0.87;98.59;99268.38;5013263;28;20046;-56
2022/03/08 02:03:42;;;;;;;66.13;55.20;;;;;;;-0.89;98.32;99262.44;5014457;28;20061;-58
2022/03/08 02:06:07;;;;;;;72.80;56.27;;;;;;;-0.87;97.77;99259.16;5018893;28;20115;-56
2022/03/08 02:08:33;;;;;;;72.60;59.87;;;;;;;-0.85;97.42;99254.19;5015445;28;20076;-56
2022/03/08 02:10:58;;;;;;;88.73;61.33;;;;;;;-0.93;98.12;99254.75;5009086;28;20124;-55
2022/03/08 02:13:27;;;;;;;62.50;51.97;;;;;;;-0.76;97.03;99262.91;5012219;28;20040;-58
2022/03/08 02:15:53;;;;;;;66.73;54.10;;;;;;;-0.82;96.01;99255.16;5013497;28;20038;-60
2022/03/08 02:18:19;;;;;;;77.70;58.97;;;;;;;-0.75;96.53;99264.63;5010246;28;20039;-59
2022/03/08 02:20:45;;;;;;;76.67;57.40;;;;;;;-0.81;96.72;99266.09;5014855;28;20034;-58
2022/03/08 02:23:11;;;;;;;76.63;63.57;;;;;;;-0.79;96.42;99269.50;5017494;28;20045;-59
2022/03/08 02:25:37;;;;;;;57.80;51.20;;;;;;;-0.80;96.57;99262.75;5017990;28;20062;-58
2022/03/08 02:28:02;;;;;;;50.80;45.40;;;;;;;-0.90;97.25;99261.59;5017345;28;20400;-59
2022/03/08 02:30:28;;;;;;;39.93;36.20;;;;;;;-0.86;97.15;99267.59;5016967;28;20115;-58
2022/03/08 02:32:54;;;;;;;31.47;28.53;;;;;;;-0.82;96.78;99261.84;5020012;28;20049;-58
2022/03/08 02:35:23;;;;;;;30.40;27.63;;;;;;;-0.89;97.24;99262.44;5019069;28;20450;-58
2022/03/08 02:37:54;;;;;;;20.50;18.53;;;;;;;-0.81;96.88;99266.09;5016993;28;20069;-57
2022/03/08 02:40:23;;;;;;;24.10;19.80;;;;;;;-0.79;96.66;99265.34;5016963;28;20042;-58
2022/03/08 02:42:48;;;;;;;19.50;17.03;;;;;;;-0.76;96.29;99269.59;5017369;28;20482;-58
2022/03/08 02:45:15;;;;;;;24.27;21.17;;;;;;;-0.78;96.86;99262.03;5017789;28;20149;-57
2022/03/08 02:47:40;;;;;;;16.73;13.47;;;;;;;-0.67;96.53;99254.84;5015896;28;20038;-58
2022/03/08 02:50:08;;;;;;;22.27;11.50;;;;;;;-0.77;96.85;99261.22;5020546;28;20530;-58
2022/03/08 02:52:34;;;;;;;14.87;9.67;;;;;;;-0.73;96.73;99257.16;5017766;28;21089;-57
2022/03/08 02:55:01;;;;;;;16.97;9.03;;;;;;;-0.74;96.80;99265.50;5014135;28;20504;-57
2022/03/08 02:57:26;;;;;;;12.47;10.07;;;;;;;-0.77;96.69;99272.94;5013108;28;20048;-57
2022/03/08 02:59:52;;;;;;;18.17;11.80;;;;;;;-0.82;96.42;99259.34;5013604;28;20033;-58
2022/03/08 03:02:17;;;;;;;17.37;11.63;;;;;;;-0.92;97.12;99253.97;5016934;28;20042;-58
2022/03/08 03:04:43;;;;;;;21.13;14.43;;;;;;;-0.80;97.02;99270.31;5015580;28;20037;-58
2022/03/08 03:07:09;;;;;;;20.40;13.97;;;;;;;-0.81;96.37;99261.91;5014765;28;20053;-57
2022/03/08 03:09:34;;;;;;;17.83;13.73;;;;;;;-0.83;96.45;99272.72;5014801;28;20042;-60
2022/03/08 03:11:59;;;;;;;18.30;11.40;;;;;;;-0.87;96.96;99266.72;5017621;28;20073;-59
2022/03/08 03:14:25;;;;;;;16.93;13.67;;;;;;;-0.89;96.84;99265.78;5015393;28;20052;-58
2022/03/08 03:16:50;;;;;;;17.50;12.80;;;;;;;-0.82;97.05;99269.41;5011627;28;20041;-58
2022/03/08 03:19:16;;;;;;;17.40;11.50;;;;;;;-0.78;96.29;99279.63;5015707;28;20920;-60
2022/03/08 03:21:41;;;;;;;19.23;11.40;;;;;;;-0.81;96.66;99281.19;5014097;28;20033;-59
2022/03/08 03:24:07;;;;;;;16.93;10.47;;;;;;;-0.82;96.85;99279.47;5013407;28;20034;-58
2022/03/08 03:26:32;;;;;;;17.67;11.57;;;;;;;-0.85;96.89;99276.84;5014961;28;20440;-58
2022/03/08 03:28:58;;;;;;;17.60;9.80;;;;;;;-0.80;96.85;99288.78;5020717;28;20037;-58
2022/03/08 03:31:23;;;;;;;14.33;8.33;;;;;;;-0.81;97.03;99278.69;5014007;28;20718;-58
2022/03/08 03:33:49;;;;;;;16.03;9.37;;;;;;;-0.83;96.53;99282.78;5011048;28;20037;-58
2022/03/08 03:36:14;;;;;;;16.60;10.17;;;;;;;-0.84;97.18;99286.97;5013395;28;20058;-59
2022/03/08 03:38:40;;;;;;;18.87;9.70;;;;;;;-0.75;96.81;99284.78;5019584;28;20120;-59
2022/03/08 03:41:05;;;;;;;19.00;10.63;;;;;;;-0.78;96.93;99291.38;5015949;28;20047;-59
2022/03/08 03:43:30;;;;;;;13.60;8.73;;;;;;;-0.72;96.61;99282.34;5011531;28;20050;-58
2022/03/08 03:45:56;;;;;;;15.67;9.77;;;;;;;-0.73;96.64;99288.22;5010958;28;20041;-58
2022/03/08 03:48:21;;;;;;;15.40;9.23;;;;;;;-0.65;96.20;99284.31;5015624;28;20507;-57
2022/03/08 03:50:47;;;;;;;16.23;10.20;;;;;;;-0.58;95.96;99280.34;5013394;28;20380;-59
2022/03/08 03:53:12;;;;;;;13.63;7.83;;;;;;;-0.57;94.79;99274.50;5012243;28;20675;-58
2022/03/08 03:55:38;;;;;;;22.47;11.10;;;;;;;-0.55;94.54;99285.47;5014327;28;20037;-59
2022/03/08 03:58:03;;;;;;;17.57;10.60;;;;;;;-0.55;94.56;99286.34;5016457;28;20671;-58
2022/03/08 04:00:29;;;;;;;14.63;7.87;;;;;;;-0.46;94.59;99291.69;5016382;28;20038;-58
2022/03/08 04:02:55;;;;;;;18.17;10.07;;;;;;;-0.47;94.20;99284.09;5010657;28;20038;-59
2022/03/08 04:05:20;;;;;;;13.37;8.83;;;;;;;-0.44;94.10;99286.72;5013590;28;20049;-59
2022/03/08 04:07:46;;;;;;;17.00;10.17;;;;;;;-0.41;93.94;99288.47;5015980;28;20050;-58
2022/03/08 04:10:13;;;;;;;13.10;9.33;;;;;;;-0.34;94.09;99291.25;5014836;28;20045;-59
2022/03/08 04:12:39;;;;;;;18.87;11.53;;;;;;;-0.35;93.42;99286.19;5011937;28;20496;-58
2022/03/08 04:15:05;;;;;;;15.37;8.67;;;;;;;-0.32;93.27;99281.25;5014483;28;20034;-57
2022/03/08 04:17:30;;;;;;;14.80;9.73;;;;;;;-0.24;92.74;99283.22;5019011;28;20444;-60
2022/03/08 04:19:56;;;;;;;15.87;9.73;;;;;;;-0.27;92.57;99280.59;5012686;28;20100;-58
2022/03/08 04:22:21;;;;;;;14.90;8.73;;;;;;;-0.23;92.10;99274.00;5010562;28;20703;-57
2022/03/08 04:24:46;;;;;;;13.63;11.40;;;;;;;-0.20;91.85;99279.13;5012501;28;20034;-56
2022/03/08 04:27:12;;;;;;;13.30;9.23;;;;;;;-0.14;91.41;99271.78;5014890;28;20550;-57
2022/03/08 04:29:38;;;;;;;15.80;10.10;;;;;;;-0.12;91.02;99267.66;5014835;28;20041;-57
2022/03/08 04:32:04;;;;;;;46.87;41.93;;;;;;;-0.20;91.13;99259.84;5010524;28;20898;-56
2022/03/08 04:34:30;;;;;;;77.63;61.30;;;;;;;-0.09;90.48;99263.59;5016163;28;20380;-58
2022/03/08 04:36:55;;;;;;;94.30;67.90;;;;;;;-0.05;90.26;99262.88;5015082;28;20262;-59
2022/03/08 04:39:21;;;;;;;78.07;60.17;;;;;;;-0.09;89.97;99268.63;5010799;28;20052;-57
2022/03/08 04:41:46;;;;;;;74.07;61.07;;;;;;;-0.02;89.58;99270.53;5012380;28;20058;-57
2022/03/08 04:44:12;;;;;;;60.60;54.00;;;;;;;0.00;89.96;99271.44;5014803;28;20096;-59
2022/03/08 04:46:37;;;;;;;53.93;48.57;;;;;;;-0.07;90.92;99261.97;5013445;28;20486;-57
2022/03/08 04:49:03;;;;;;;53.90;48.37;;;;;;;-0.08;91.17;99266.94;5010921;28;20123;-59
2022/03/08 04:51:28;;;;;;;45.97;41.67;;;;;;;-0.07;91.29;99261.09;5012468;28;20805;-56
2022/03/08 04:53:54;;;;;;;36.27;32.77;;;;;;;-0.19;91.99;99271.63;5015131;28;20073;-58
2022/03/08 04:56:19;;;;;;;29.00;26.10;;;;;;;-0.21;92.49;99259.81;5014155;28;20072;-57
2022/03/08 04:58:46;;;;;;;29.43;26.60;;;;;;;-0.21;93.00;99268.19;5010487;28;20696;-58
2022/03/08 05:01:12;;;;;;;21.50;18.07;;;;;;;-0.23;92.80;99264.78;5010641;28;20053;-57
2022/03/08 05:03:38;;;;;;;18.70;14.83;;;;;;;-0.24;92.72;99273.13;5014592;28;20042;-58
2022/03/08 05:06:05;;;;;;;17.13;13.13;;;;;;;-0.19;92.19;99259.03;5016560;28;20049;-57
2022/03/08 05:08:30;;;;;;;14.90;8.90;;;;;;;-0.21;92.22;99259.81;5012882;28;20484;-58
2022/03/08 05:10:56;;;;;;;16.00;9.90;;;;;;;-0.25;91.99;99263.88;5011574;28;20061;-53
2022/03/08 05:13:22;;;;;;;18.77;10.33;;;;;;;-0.28;92.37;99256.22;5014931;28;20046;-55
2022/03/08 05:15:48;;;;;;;15.40;9.47;;;;;;;-0.31;92.17;99250.22;5015174;28;20121;-58
2022/03/08 05:18:15;;;;;;;15.37;9.93;;;;;;;-0.45;92.53;99252.25;5010846;28;20396;-58
2022/03/08 05:20:41;;;;;;;14.83;9.17;;;;;;;-0.44;92.35;99253.13;5014674;28;20045;-58
2022/03/08 05:23:06;;;;;;;19.90;11.67;;;;;;;-0.47;92.44;99246.34;5014745;28;20070;-56
2022/03/08 05:25:32;;;;;;;19.90;11.40;;;;;;;-0.48;92.66;99252.16;5012563;28;20674;-59
2022/03/08 05:27:57;;;;;;;16.90;10.53;;;;;;;-0.52;93.11;99246.16;5010669;28;20058;-57
2022/03/08 05:30:23;;;;;;;16.93;11.10;;;;;;;-0.48;93.40;99248.00;5012095;28;20092;-59
2022/03/08 05:32:49;;;;;;;19.03;11.60;;;;;;;-0.62;94.31;99243.28;5012053;28;20048;-59
2022/03/08 05:35:14;;;;;;;14.73;11.90;;;;;;;-0.55;93.51;99242.66;5012578;28;20041;-55
2022/03/08 05:37:40;;;;;;;17.87;10.53;;;;;;;-0.57;93.49;99249.31;5014599;28;20550;-57
2022/03/08 05:40:06;;;;;;;15.90;11.47;;;;;;;-0.50;93.10;99251.25;5011897;28;20100;-57
2022/03/08 05:42:32;;;;;;;14.57;9.80;;;;;;;-0.54;93.32;99252.81;5011136;28;20414;-56
2022/03/08 05:44:58;;;;;;;12.87;9.63;;;;;;;-0.48;92.16;99245.47;5011057;28;20037;-59
2022/03/08 05:47:23;;;;;;;15.63;10.10;;;;;;;-0.44;92.13;99255.66;5010529;28;20566;-55
2022/03/08 05:49:49;;;;;;;16.87;12.63;;;;;;;-0.41;91.58;99259.13;5014850;28;20041;-58
2022/03/08 05:52:14;;;;;;;16.60;13.40;;;;;;;-0.40;91.76;99268.41;5016152;28;20813;-57
2022/03/08 05:54:39;;;;;;;18.30;13.67;;;;;;;-0.37;91.41;99270.16;5012509;28;20033;-56
2022/03/08 05:57:05;;;;;;;16.10;11.40;;;;;;;-0.25;90.56;99273.06;5011640;28;20033;-57
2022/03/08 05:59:30;;;;;;;15.77;9.07;;;;;;;-0.28;90.19;99271.31;5013007;28;20112;-59
2022/03/08 06:01:56;;;;;;;19.97;12.20;;;;;;;-0.27;89.97;99280.59;5016638;28;20583;-59
2022/03/08 06:04:21;;;;;;;18.93;11.43;;;;;;;-0.28;89.78;99272.97;5015458;28;20034;-60
2022/03/08 06:06:47;;;;;;;19.57;13.20;;;;;;;-0.21;88.70;99280.78;5011550;28;20185;-59
2022/03/08 06:09:13;;;;;;;18.73;12.57;;;;;;;-0.16;87.92;99270.88;5018604;28;20030;-58
2022/03/08 06:11:38;;;;;;;13.20;10.07;;;;;;;-0.13;88.82;99268.47;5015733;28;20185;-57
2022/03/08 06:14:04;;;;;;;16.53;11.33;;;;;;;-0.06;87.28;99265.34;5014110;28;20051;-58
2022/03/08 06:16:29;;;;;;;19.77;13.13;;;;;;;-0.02;85.91;99260.47;5010230;28;21060;-57
2022/03/08 06:18:56;;;;;;;17.53;12.10;;;;;;;0.05;86.05;99261.50;5010956;28;20128;-58
2022/03/08 06:21:22;;;;;;;16.40;11.57;;;;;;;0.12;85.08;99272.66;5011769;28;20124;-59
2022/03/08 06:23:47;;;;;;;11.67;8.47;;;;;;;0.14;84.74;99271.03;5010909;28;20514;-58
2022/03/08 06:26:12;;;;;;;15.10;7.73;;;;;;;0.16;84.82;99265.25;5015444;28;20033;-57
2022/03/08 06:28:38;;;;;;;11.30;7.60;;;;;;;0.20;83.31;99267.06;5016477;28;20164;-59
2022/03/08 06:31:03;;;;;;;15.53;9.40;;;;;;;0.29;83.04;99276.56;5018742;28;20042;-59
2022/03/08 06:33:29;;;;;;;15.30;10.50;;;;;;;0.31;82.33;99274.94;5011130;28;20104;-57
2022/03/08 06:35:54;;;;;;;14.17;8.83;;;;;;;0.41;81.11;99266.88;5008672;28;20093;-57
2022/03/08 06:38:20;;;;;;;13.07;8.40;;;;;;;0.46;81.04;99275.44;5011798;28;20033;-54
2022/03/08 06:40:45;;;;;;;16.10;11.73;;;;;;;0.54;80.68;99276.53;5015217;28;20746;-54
2022/03/08 06:43:10;;;;;;;14.70;12.30;;;;;;;0.61;80.23;99280.94;5010704;28;20133;-56
2022/03/08 06:45:36;;;;;;;18.30;12.60;;;;;;;0.75;79.47;99269.63;5010728;28;20042;-58
2022/03/08 06:48:01;;;;;;;20.00;16.70;;;;;;;0.77;79.05;99273.03;5016778;28;20786;-59
2022/03/08 06:50:26;;;;;;;19.33;12.70;;;;;;;0.81;78.69;99272.28;5011119;28;20092;-60
2022/03/08 06:52:52;;;;;;;16.27;13.67;;;;;;;0.86;78.58;99259.81;5005590;28;20033;-57
2022/03/08 06:55:17;;;;;;;15.57;12.20;;;;;;;0.96;76.85;99261.81;5010161;28;20044;-59
2022/03/08 06:57:43;;;;;;;17.87;14.40;;;;;;;1.03;75.98;99261.16;5009503;28;20038;-59
2022/03/08 07:00:09;;;;;;;17.33;13.40;;;;;;;1.11;76.05;99267.28;5010607;28;20034;-60
2022/03/08 07:02:35;;;;;;;19.43;14.87;;;;;;;1.15;75.15;99270.75;5008248;28;20034;-59
2022/03/08 07:05:00;;;;;;;26.13;23.43;;;;;;;1.24;74.58;99271.00;5008162;28;20787;-55
2022/03/08 07:07:25;;;;;;;22.13;20.13;;;;;;;1.23;73.89;99280.25;5009710;28;20404;-56
2022/03/08 07:09:51;;;;;;;23.60;21.37;;;;;;;1.30;73.74;99286.34;5013682;28;20129;-56
2022/03/08 07:12:16;;;;;;;22.80;19.60;;;;;;;1.38;73.05;99269.72;5016443;28;20041;-55
2022/03/08 07:14:42;;;;;;;21.17;19.33;;;;;;;1.49;73.48;99277.59;5014507;28;20057;-57
2022/03/08 07:17:07;;;;;;;24.77;22.60;;;;;;;1.60;72.38;99283.81;5014204;28;20116;-57
2022/03/08 07:19:32;;;;;;;31.77;28.77;;;;;;;1.68;72.73;99285.72;5011943;28;20789;-57
2022/03/08 07:21:58;;;;;;;35.60;32.60;;;;;;;1.78;72.62;99286.84;5009554;28;20048;-55
2022/03/08 07:24:23;;;;;;;37.30;34.17;;;;;;;1.80;71.88;99267.50;5017959;28;20033;-56
2022/03/08 07:26:48;;;;;;;27.53;25.00;;;;;;;1.86;71.04;99290.41;5021626;28;20480;-56
2022/03/08 07:29:14;;;;;;;23.37;21.57;;;;;;;1.88;71.06;99290.44;5014194;28;20050;-58
2022/03/08 07:31:39;;;;;;;18.33;15.80;;;;;;;2.05;70.55;99295.09;5013844;28;20033;-58
2022/03/08 07:34:05;;;;;;;19.87;17.80;;;;;;;2.05;69.22;99284.13;5012214;28;20045;-57
2022/03/08 07:36:31;;;;;;;14.70;11.30;;;;;;;2.14;69.16;99297.00;5016776;28;20033;-56
2022/03/08 07:38:57;;;;;;;15.17;13.00;;;;;;;2.23;69.20;99290.50;5017208;28;20041;-57
2022/03/08 07:41:22;;;;;;;15.93;10.13;;;;;;;2.42;68.21;99298.56;5014288;28;20056;-57
2022/03/08 07:43:48;;;;;;;13.30;8.73;;;;;;;2.36;67.91;99293.34;5013079;28;20566;-58
2022/03/08 07:46:14;;;;;;;11.60;9.17;;;;;;;2.49;68.00;99292.81;5013584;28;20033;-58
2022/03/08 07:48:40;;;;;;;15.77;10.40;;;;;;;2.46;67.14;99303.69;5010752;28;20047;-58
2022/03/08 07:51:05;;;;;;;15.30;10.73;;;;;;;2.53;67.21;99297.13;5011359;28;20500;-54
2022/03/08 07:53:31;;;;;;;13.17;8.83;;;;;;;2.70;67.17;99290.78;5014703;28;20040;-57
2022/03/08 07:55:57;;;;;;;13.83;8.00;;;;;;;2.83;66.80;99304.56;5016993;28;20111;-60
2022/03/08 07:58:22;;;;;;;13.80;8.17;;;;;;;2.94;66.55;99303.13;5014325;28;20141;-58
2022/03/08 08:00:48;;;;;;;10.97;7.80;;;;;;;3.20;66.10;99304.53;5014575;28;20160;-58
2022/03/08 08:03:14;;;;;;;11.63;8.20;;;;;;;3.37;65.64;99302.34;5020636;28;20482;-59
2022/03/08 08:05:39;;;;;;;13.13;7.60;;;;;;;3.46;64.73;99297.47;5016089;28;20703;-57
2022/03/08 08:08:06;;;;;;;11.43;7.67;;;;;;;3.62;64.36;99297.78;5016596;28;20033;-58
2022/03/08 08:10:33;;;;;;;10.77;6.20;;;;;;;3.81;63.87;99288.84;5016388;28;20069;-53
2022/03/08 08:12:59;;;;;;;11.03;7.13;;;;;;;3.81;63.41;99293.06;5015922;28;20618;-57
2022/03/08 08:15:25;;;;;;;11.23;7.20;;;;;;;3.82;63.23;99295.63;5018198;28;20041;-59
2022/03/08 08:17:50;;;;;;;12.90;7.10;;;;;;;3.74;62.23;99296.28;5013197;28;20034;-58
2022/03/08 08:20:16;;;;;;;13.33;7.07;;;;;;;3.92;62.45;99291.56;5014091;28;20046;-55
2022/03/08 08:22:42;;;;;;;9.57;6.67;;;;;;;4.09;61.87;99291.03;5017144;28;20368;-57
2022/03/08 08:25:08;;;;;;;10.53;7.03;;;;;;;3.97;61.41;99289.97;5014115;28;20041;-58
2022/03/08 08:27:34;;;;;;;12.00;7.17;;;;;;;3.84;62.27;99288.03;5012831;28;20041;-58
2022/03/08 08:29:59;;;;;;;11.67;8.03;;;;;;;3.83;61.91;99291.41;5009862;28;20773;-56
2022/03/08 08:32:24;;;;;;;10.27;6.60;;;;;;;3.86;61.67;99294.00;5013031;28;20077;-56
2022/03/08 08:34:50;;;;;;;10.43;7.23;;;;;;;3.99;61.41;99299.31;5014354;28;20045;-58
2022/03/08 08:37:15;;;;;;;12.63;5.43;;;;;;;4.19;59.42;99291.22;5011533;28;20480;-58
2022/03/08 08:39:41;;;;;;;10.33;6.67;;;;;;;4.44;58.77;99299.25;5010117;28;20452;-58
2022/03/08 08:42:07;;;;;;;10.50;6.27;;;;;;;4.63;58.30;99308.00;5013419;28;20092;-58
2022/03/08 08:44:33;;;;;;;9.17;5.93;;;;;;;4.68;57.02;99298.75;5016754;28;20064;-58
2022/03/08 08:46:59;;;;;;;10.47;5.80;;;;;;;4.65;56.81;99295.31;5008300;28;20038;-58
2022/03/08 08:49:25;;;;;;;8.17;5.10;;;;;;;4.68;56.44;99293.69;5011367;28;20030;-57
2022/03/08 08:51:51;;;;;;;12.90;7.90;;;;;;;4.78;57.32;99297.22;5012166;28;20053;-57
2022/03/08 08:54:17;;;;;;;9.97;7.17;;;;;;;4.69;57.32;99292.00;5011783;28;20137;-58
2022/03/08 08:56:43;;;;;;;10.40;7.00;;;;;;;4.36;56.51;99288.13;5009377;28;20034;-58
2022/03/08 08:59:08;;;;;;;10.80;7.20;;;;;;;4.32;57.62;99291.44;5011271;28;20036;-57
2022/03/08 09:01:34;;;;;;;11.30;6.87;;;;;;;4.52;57.38;99291.75;5012127;28;20037;-56
2022/03/08 09:03:59;;;;;;;10.30;6.37;;;;;;;4.81;57.04;99287.09;5011254;28;20092;-57
2022/03/08 09:06:26;;;;;;;10.13;6.97;;;;;;;4.91;56.47;99299.09;5009071;28;20042;-56
2022/03/08 09:08:51;;;;;;;12.07;7.30;;;;;;;4.88;55.91;99292.28;5013077;28;20376;-57
2022/03/08 09:11:17;;;;;;;8.83;5.70;;;;;;;4.60;55.34;99282.56;5013653;28;20052;-56
2022/03/08 09:13:43;;;;;;;11.20;6.13;;;;;;;4.77;55.21;99277.72;5010456;28;20053;-58
2022/03/08 09:16:08;;;;;;;8.60;6.03;;;;;;;5.02;55.43;99284.84;5009339;28;20490;-56
2022/03/08 09:18:34;;;;;;;7.23;5.10;;;;;;;5.13;54.21;99274.84;5013974;28;20042;-57
2022/03/08 09:20:59;;;;;;;9.30;5.27;;;;;;;5.09;53.49;99270.56;5015160;28;20045;-56
2022/03/08 09:23:25;;;;;;;10.33;5.43;;;;;;;4.74;53.82;99277.69;5011513;28;20044;-58
2022/03/08 09:25:50;;;;;;;6.47;4.77;;;;;;;4.74;53.61;99267.53;5015808;28;20056;-58
2022/03/08 09:28:15;;;;;;;6.63;5.50;;;;;;;4.89;53.61;99268.59;5023394;28;20103;-59
2022/03/08 09:30:42;;;;;;;7.17;5.50;;;;;;;5.00;53.17;99261.13;5013671;28;20041;-57
2022/03/08 09:33:08;;;;;;;5.67;5.03;;;;;;;4.80;53.99;99270.13;5010317;28;20045;-57
2022/03/08 09:35:33;;;;;;;10.43;5.63;;;;;;;4.75;53.71;99254.88;5016661;28;20034;-57
2022/03/08 09:37:59;;;;;;;10.37;5.77;;;;;;;4.71;54.17;99260.69;5019882;28;20037;-60
2022/03/08 09:40:24;;;;;;;9.40;5.30;;;;;;;4.46;54.71;99254.41;5018093;28;20468;-55
2022/03/08 09:42:51;;;;;;;6.47;4.40;;;;;;;4.65;54.57;99255.56;5018473;28;20050;-57
2022/03/08 09:45:17;;;;;;;10.13;4.63;;;;;;;4.97;53.55;99266.16;5020555;28;20064;-55
2022/03/08 09:47:43;;;;;;;5.33;4.17;;;;;;;5.26;52.66;99264.00;5022043;28;20045;-58
2022/03/08 09:50:10;;;;;;;5.73;4.00;;;;;;;5.61;51.58;99264.38;5020728;28;20034;-57
2022/03/08 09:52:37;;;;;;;4.47;3.60;;;;;;;5.91;50.22;99269.81;5016127;28;20050;-57
2022/03/08 09:55:05;;;;;;;6.43;3.87;;;;;;;5.85;50.25;99252.78;5011124;28;20034;-58
2022/03/08 09:57:30;;;;;;;6.93;4.83;;;;;;;6.31;50.18;99261.72;5014297;28;20144;-56
2022/03/08 09:59:56;;;;;;;6.63;5.07;;;;;;;6.38;49.01;99266.00;5010658;28;20630;-57
2022/03/08 10:02:24;;;;;;;7.27;4.63;;;;;;;6.52;48.88;99265.25;5008802;28;20056;-58
2022/03/08 10:05:06;;;;;;;6.47;4.43;;;;;;;6.02;49.46;99257.22;5012442;28;20121;-58
2022/03/08 10:07:32;;;;;;;12.20;6.20;;;;;;;5.80;50.04;99251.91;5019086;28;20487;-57
2022/03/08 10:09:59;;;;;;;9.97;5.37;;;;;;;6.28;49.64;99253.22;5010512;28;20046;-58
2022/03/08 10:12:26;;;;;;;8.30;5.33;;;;;;;5.89;49.87;99266.44;5028080;28;20059;-58
2022/03/08 10:14:51;;;;;;;10.03;5.27;;;;;;;5.79;50.29;99260.34;5015659;28;20061;-56
2022/03/08 10:17:52;;;;;;;10.90;6.00;;;;;;;5.92;49.38;99263.91;5013178;28;20495;-58
2022/03/08 10:20:28;;;;;;;8.60;5.47;;;;;;;6.23;48.52;99254.84;4998658;28;20141;-59
2022/03/08 10:22:54;;;;;;;9.27;5.23;;;;;;;6.33;48.52;99267.66;4981867;28;20768;-57
2022/03/08 10:25:22;;;;;;;7.83;5.20;;;;;;;6.34;48.28;99266.81;4998849;28;20045;-57
2022/03/08 10:27:53;;;;;;;8.60;3.90;;;;;;;5.74;48.22;99269.63;4999415;28;20045;-54
2022/03/08 10:30:20;;;;;;;7.03;4.40;;;;;;;5.90;47.46;99268.09;4999966;28;20065;-55
2022/03/08 10:32:46;;;;;;;7.23;4.60;;;;;;;6.13;47.05;99265.78;5000537;28;20882;-54
2022/03/08 10:35:21;;;;;;;6.97;3.97;;;;;;;6.25;46.41;99270.97;4999653;28;20042;-55
2022/03/08 10:37:47;;;;;;;5.72;4.10;;;;;;;6.54;45.33;99266.97;4999452;28;20050;-57
2022/03/08 10:40:20;;;;;;;5.93;4.10;;;;;;;6.61;44.98;99253.44;4999110;28;20204;-59
2022/03/08 10:42:57;;;;;;;7.87;5.03;;;;;;;6.62;45.67;99256.84;5000139;28;20054;-57
2022/03/08 10:45:26;;;;;;;6.57;4.03;;;;;;;6.72;44.80;99253.50;5003284;28;20029;-57
2022/03/08 10:47:53;;;;;;;7.40;4.20;;;;;;;6.53;45.31;99265.28;5002215;28;20053;-59
2022/03/08 10:50:21;;;;;;;6.10;4.53;;;;;;;6.33;46.00;99256.63;5003491;28;20392;-59
2022/03/08 10:52:50;;;;;;;8.20;5.40;;;;;;;6.09;46.14;99258.97;5004186;28;20076;-57
2022/03/08 10:55:20;;;;;;;7.43;4.43;;;;;;;6.21;46.28;99249.75;5013646;28;20041;-55
2022/03/08 10:57:54;;;;;;;7.73;4.37;;;;;;;6.38;45.54;99253.28;5021398;28;20037;-59
2022/03/08 11:00:23;;;;;;;6.20;4.67;;;;;;;6.52;45.63;99248.28;5021935;28;20037;-55
2022/03/08 11:02:55;;;;;;;5.83;4.63;;;;;;;6.61;45.08;99260.25;5012625;28;20702;-58
2022/03/08 11:05:23;;;;;;;8.80;5.70;;;;;;;6.36;46.13;99254.97;5013373;28;20030;-59
2022/03/08 11:07:49;;;;;;;6.80;4.40;;;;;;;6.54;45.79;99254.22;5012783;28;20151;-57
2022/03/08 11:10:15;;;;;;;8.40;5.77;;;;;;;6.77;45.82;99255.25;5013420;28;20041;-58
2022/03/08 11:12:41;;;;;;;5.53;4.60;;;;;;;6.52;45.20;99252.53;5013001;28;20054;-57
2022/03/08 11:15:10;;;;;;;6.27;4.20;;;;;;;6.50;45.70;99256.75;5016132;28;20049;-57
2022/03/08 11:17:38;;;;;;;11.87;5.03;;;;;;;6.71;47.69;99267.94;5016160;28;20049;-57
2022/03/08 11:20:06;;;;;;;7.53;4.60;;;;;;;6.86;46.95;99255.31;5012193;28;20033;-59